PWSweather.com
Personal Weather Stations
Station Observations
PITCARMI1
La Serra, CarmignanoIT 59015

La SerraCarmignanoIT 59015

Lat: 43.804429, Lon: 11.027222

Elevation: 525

Station Type: Davis Vantage Vue

http://www.meteocarmignano.it

High Low Average
Temperature 57.0°F13.9°F 50.2°F10.1°F 53.4°F11.9°F
Dew Point 54.4°F12.4°F 48.6°F9.2°F 51.6°F10.9°F
Winds Calm NECalm NE Calm Calm Calm Calm
Wind Gusts -- -- --
Humidity 96% 91% 94%
Pressure 30.25 in1024.40 in 30.18 in1022.00 in -
Precipitation 0.06 in1.50 in - -
Hour Temp Dew Point Humidity Winds Wind Gusts Pressure Precip Precip Rate Daily Precip Total
12:00 AM 50.8°F10.4°C 49.4°F9.7°C 95% Calm Calm -- 30.20 in1022.7 mb 0.00 in0.0 mm 0.00 in/hr0.0 mm/hr 0.00 in0.0 mm
12:30 AM 50.5°F10.3°C 49.1°F9.5°C 95% Calm Calm -- 30.20 in1022.7 mb 0.00 in0.0 mm 0.00 in/hr0.0 mm/hr 0.00 in0.0 mm
01:00 AM 50.7°F10.4°C 49.0°F9.4°C 94% Calm Calm -- 30.20 in1022.7 mb 0.01 in0.3 mm 0.02 in/hr0.5 mm/hr 0.01 in0.3 mm
01:30 AM 50.8°F10.4°C 48.8°F9.3°C 93% Calm Calm -- 30.19 in1022.4 mb 0.00 in0.0 mm 0.00 in/hr0.0 mm/hr 0.01 in0.3 mm
02:00 AM 50.6°F10.3°C 48.7°F9.3°C 93% Calm Calm -- 30.19 in1022.4 mb 0.00 in0.0 mm 0.00 in/hr0.0 mm/hr 0.01 in0.3 mm
02:30 AM 50.5°F10.3°C 48.8°F9.3°C 94% Calm Calm -- 30.20 in1022.7 mb 0.00 in0.0 mm 0.00 in/hr0.0 mm/hr 0.01 in0.3 mm
03:00 AM 50.3°F10.2°C 48.6°F9.2°C 94% Calm Calm -- 30.19 in1022.4 mb 0.00 in0.0 mm 0.00 in/hr0.0 mm/hr 0.01 in0.3 mm
03:30 AM 50.3°F10.2°C 48.9°F9.4°C 95% Calm Calm -- 30.19 in1022.4 mb 0.02 in0.5 mm 0.04 in/hr1.0 mm/hr 0.02 in0.5 mm
04:00 AM 50.3°F10.2°C 48.9°F9.4°C 95% Calm Calm -- 30.18 in1022.0 mb 0.00 in0.0 mm 0.00 in/hr0.0 mm/hr 0.02 in0.5 mm
04:30 AM 50.2°F10.1°C 48.8°F9.3°C 95% Calm Calm -- 30.18 in1022.0 mb 0.00 in0.0 mm 0.00 in/hr0.0 mm/hr 0.02 in0.5 mm
05:00 AM 50.4°F10.2°C 49.0°F9.4°C 95% Calm Calm -- 30.18 in1022.0 mb 0.00 in0.0 mm 0.00 in/hr0.0 mm/hr 0.02 in0.5 mm
06:00 AM 50.4°F10.2°C 49.3°F9.6°C 96% Calm Calm -- 30.18 in1022.0 mb 0.00 in0.0 mm 0.00 in/hr0.0 mm/hr 0.02 in0.5 mm
06:30 AM 50.5°F10.3°C 49.4°F9.7°C 96% Calm Calm -- 30.18 in1022.0 mb 0.01 in0.3 mm 0.02 in/hr0.5 mm/hr 0.03 in0.8 mm
07:00 AM 50.7°F10.4°C 49.6°F9.8°C 96% Calm Calm -- 30.18 in1022.0 mb 0.00 in0.0 mm 0.00 in/hr0.0 mm/hr 0.03 in0.8 mm
07:30 AM 51.4°F10.8°C 50.3°F10.2°C 96% Calm Calm -- 30.19 in1022.4 mb 0.01 in0.3 mm 0.02 in/hr0.5 mm/hr 0.04 in1.0 mm
08:00 AM 51.7°F10.9°C 50.6°F10.3°C 96% Calm Calm -- 30.19 in1022.4 mb 0.00 in0.0 mm 0.00 in/hr0.0 mm/hr 0.04 in1.0 mm
08:30 AM 51.5°F10.8°C 50.4°F10.2°C 96% Calm Calm -- 30.20 in1022.7 mb 0.00 in0.0 mm 0.00 in/hr0.0 mm/hr 0.04 in1.0 mm
09:00 AM 51.7°F10.9°C 50.6°F10.3°C 96% Calm Calm -- 30.20 in1022.7 mb 0.01 in0.3 mm 0.02 in/hr0.5 mm/hr 0.05 in1.3 mm
09:30 AM 51.7°F10.9°C 50.6°F10.3°C 96% Calm Calm -- 30.21 in1023.0 mb 0.00 in0.0 mm 0.00 in/hr0.0 mm/hr 0.05 in1.3 mm
10:00 AM 52.4°F11.3°C 51.3°F10.7°C 96% Calm Calm -- 30.23 in1023.7 mb 0.00 in0.0 mm 0.00 in/hr0.0 mm/hr 0.05 in1.3 mm
10:30 AM 52.8°F11.6°C 51.7°F10.9°C 96% Calm Calm -- 30.23 in1023.7 mb 0.00 in0.0 mm 0.00 in/hr0.0 mm/hr 0.05 in1.3 mm
11:00 AM 53.4°F11.9°C 52.3°F11.3°C 96% Calm Calm -- 30.23 in1023.7 mb 0.00 in0.0 mm 0.00 in/hr0.0 mm/hr 0.05 in1.3 mm
11:30 AM 54.3°F12.4°C 53.2°F11.8°C 96% Calm Calm -- 30.23 in1023.7 mb 0.00 in0.0 mm 0.00 in/hr0.0 mm/hr 0.05 in1.3 mm
12:00 PM 54.7°F12.6°C 53.3°F11.8°C 95% Calm Calm -- 30.22 in1023.4 mb 0.00 in0.0 mm 0.00 in/hr0.0 mm/hr 0.05 in1.3 mm
12:30 PM 55.1°F12.8°C 53.4°F11.9°C 94% Calm Calm -- 30.22 in1023.4 mb 0.00 in0.0 mm 0.00 in/hr0.0 mm/hr 0.05 in1.3 mm
01:00 PM 55.7°F13.2°C 53.7°F12.1°C 93% Calm Calm -- 30.22 in1023.4 mb 0.00 in0.0 mm 0.00 in/hr0.0 mm/hr 0.05 in1.3 mm
01:30 PM 55.6°F13.1°C 53.3°F11.8°C 92% Calm Calm -- 30.21 in1023.0 mb 0.00 in0.0 mm 0.00 in/hr0.0 mm/hr 0.05 in1.3 mm
02:00 PM 56.2°F13.4°C 53.9°F12.2°C 92% Calm Calm -- 30.21 in1023.0 mb 0.00 in0.0 mm 0.00 in/hr0.0 mm/hr 0.05 in1.3 mm
02:30 PM 57.0°F13.9°C 54.4°F12.4°C 91% Calm Calm -- 30.20 in1022.7 mb 0.00 in0.0 mm 0.00 in/hr0.0 mm/hr 0.05 in1.3 mm
03:30 PM 56.3°F13.5°C 54.3°F12.4°C 93% Calm Calm -- 30.20 in1022.7 mb 0.00 in0.0 mm 0.00 in/hr0.0 mm/hr 0.05 in1.3 mm
04:00 PM 55.6°F13.1°C 53.6°F12.0°C 93% Calm Calm -- 30.20 in1022.7 mb 0.00 in0.0 mm 0.00 in/hr0.0 mm/hr 0.05 in1.3 mm
04:30 PM 55.7°F13.2°C 53.7°F12.1°C 93% Calm Calm -- 30.21 in1023.0 mb 0.00 in0.0 mm 0.00 in/hr0.0 mm/hr 0.05 in1.3 mm
05:00 PM 55.4°F13.0°C 53.4°F11.9°C 93% Calm Calm -- 30.21 in1023.0 mb 0.00 in0.0 mm 0.00 in/hr0.0 mm/hr 0.05 in1.3 mm
05:30 PM 55.5°F13.1°C 53.2°F11.8°C 92% Calm Calm -- 30.22 in1023.4 mb 0.00 in0.0 mm 0.00 in/hr0.0 mm/hr 0.05 in1.3 mm
06:00 PM 55.4°F13.0°C 53.1°F11.7°C 92% Calm Calm -- 30.21 in1023.0 mb 0.00 in0.0 mm 0.00 in/hr0.0 mm/hr 0.05 in1.3 mm
06:30 PM 55.3°F12.9°C 53.0°F11.7°C 92% Calm Calm -- 30.22 in1023.4 mb 0.00 in0.0 mm 0.00 in/hr0.0 mm/hr 0.05 in1.3 mm
07:00 PM 55.1°F12.8°C 53.1°F11.7°C 93% Calm Calm -- 30.22 in1023.4 mb 0.00 in0.0 mm 0.00 in/hr0.0 mm/hr 0.05 in1.3 mm
07:30 PM 55.8°F13.2°C 53.2°F11.8°C 91% Calm Calm -- 30.23 in1023.7 mb 0.00 in0.0 mm 0.00 in/hr0.0 mm/hr 0.05 in1.3 mm
08:00 PM 55.3°F12.9°C 53.3°F11.8°C 93% Calm Calm -- 30.23 in1023.7 mb 0.00 in0.0 mm 0.00 in/hr0.0 mm/hr 0.05 in1.3 mm
08:30 PM 55.4°F13.0°C 53.1°F11.7°C 92% Calm Calm -- 30.23 in1023.7 mb 0.00 in0.0 mm 0.00 in/hr0.0 mm/hr 0.05 in1.3 mm
09:00 PM 55.3°F12.9°C 53.3°F11.8°C 93% Calm Calm -- 30.24 in1024.0 mb 0.00 in0.0 mm 0.00 in/hr0.0 mm/hr 0.05 in1.3 mm
09:30 PM 55.7°F13.2°C 53.4°F11.9°C 92% Calm Calm -- 30.24 in1024.0 mb 0.00 in0.0 mm 0.00 in/hr0.0 mm/hr 0.05 in1.3 mm
10:00 PM 55.5°F13.1°C 53.2°F11.8°C 92% Calm Calm -- 30.24 in1024.0 mb 0.00 in0.0 mm 0.00 in/hr0.0 mm/hr 0.05 in1.3 mm
10:30 PM 55.0°F12.8°C 53.3°F11.8°C 94% Calm Calm -- 30.25 in1024.4 mb 0.00 in0.0 mm 0.00 in/hr0.0 mm/hr 0.05 in1.3 mm
11:00 PM 55.3°F12.9°C 53.3°F11.8°C 93% Calm Calm -- 30.25 in1024.4 mb 0.00 in0.0 mm 0.00 in/hr0.0 mm/hr 0.05 in1.3 mm
11:30 PM 55.0°F12.8°C 53.0°F11.7°C 93% Calm Calm -- 30.25 in1024.4 mb 0.00 in0.0 mm 0.00 in/hr0.0 mm/hr 0.05 in1.3 mm